EDT,Max TemperatureF,Mean TemperatureF,Min TemperatureF,Max Dew PointF,MeanDew PointF,Min DewpointF,Max Humidity, Mean Humidity, Min Humidity, Max Sea Level PressureIn, Mean Sea Level PressureIn, Min Sea Level PressureIn, Max VisibilityMiles, Mean VisibilityMiles, Min VisibilityMiles, Max Wind SpeedMPH, Mean Wind SpeedMPH, Max Gust SpeedMPH,PrecipitationIn, CloudCover, Events, WindDirDegrees
2012-10-1,91,82,75,79,75,72,94,82,55,29.81,29.76,29.71,10,9,3,14,8,,0.08,5,Rain-Thunderstorm,179
2012-10-2,90,84,78,77,73,71,90,76,55,30.02,29.87,29.77,10,10,10,17,11,28,0.00,6,Rain,204
2012-10-3,84,80,75,75,73,71,97,84,67,30.18,30.10,30.01,10,9,4,10,4,,0.01,7,Rain,257
2012-10-4,91,82,73,76,74,70,97,86,53,30.21,30.17,30.13,10,8,2,21,4,29,0.52,6,Rain-Thunderstorm,244
2012-10-5,88,82,75,77,75,73,100,84,61,30.14,30.07,30.00,10,8,2,12,5,,0.01,7,Rain-Thunderstorm,46
2012-10-6,87,80,75,76,74,72,94,81,67,30.01,29.96,29.90,10,10,10,14,5,,0.06,6,Rain-Thunderstorm,42
2012-10-7,90,81,73,75,72,66,97,77,46,30.01,29.97,29.93,10,10,10,13,4,,0.00,4,Thunderstorm,147
2012-10-8,86,78,72,75,73,70,97,86,65,30.06,30.00,29.94,10,8,0,21,6,29,1.09,5,Fog-Rain-Thunderstorm,290
2012-10-9,71,68,64,70,64,63,94,89,83,30.11,30.07,30.02,10,7,4,14,11,,0.00,7,,12
2012-10-10,81,70,60,68,63,60,100,85,58,30.17,30.11,30.05,10,6,0,10,4,,0.00,2,Fog,328
2012-10-11,82,74,68,67,63,56,93,70,42,30.22,30.18,30.12,10,10,8,12,6,,0.00,1,,16
2012-10-12,82,75,68,66,63,59,90,68,47,30.23,30.18,30.14,10,10,9,10,7,,0.00,1,,22
2012-10-13,84,78,73,72,67,64,82,69,53,30.25,30.20,30.17,10,10,9,15,8,23,0.00,3,Rain,48
2012-10-14,86,79,72,72,70,67,93,77,53,30.17,30.10,30.02,10,10,10,15,8,,0.01,4,Rain,65
2012-10-15,86,78,71,72,69,67,96,76,55,30.01,29.91,29.82,10,10,10,8,2,,0.00,4,,282
2012-10-16,79,72,66,67,58,54,79,62,48,29.92,29.88,29.86,10,10,10,15,10,,0.00,4,,14
2012-10-17,79,72,66,70,64,59,87,75,62,29.93,29.88,29.84,10,10,10,12,7,,0.00,6,,34
2012-10-18,88,78,69,73,69,64,100,83,46,29.91,29.86,29.79,10,7,0,10,7,,0.00,6,Fog,205
2012-10-19,81,75,69,69,65,57,96,73,47,29.89,29.84,29.79,10,10,10,12,5,,0.00,5,,317
2012-10-20,82,71,61,65,50,42,84,51,27,29.97,29.90,29.86,10,10,10,10,7,17,0.00,1,,292
2012-10-21,79,70,61,64,54,50,81,60,40,30.11,30.05,29.97,10,10,10,12,7,,0.00,0,,5
2012-10-22,79,72,66,65,63,60,90,73,54,30.16,30.11,30.07,10,10,10,15,11,21,0.00,3,,22
2012-10-23,82,72,64,70,65,61,97,78,52,30.12,30.08,30.05,10,10,10,14,9,,0.00,3,,20
2012-10-24,84,75,66,71,68,61,100,80,46,30.09,30.04,30.01,10,10,10,16,8,22,0.00,2,,26
2012-10-25,84,78,71,72,71,69,100,81,61,30.00,29.94,29.91,10,10,10,17,10,26,0.00,6,,38
2012-10-26,78,76,72,73,69,62,96,82,68,29.88,29.79,29.70,10,9,6,29,17,38,0.01,8,Rain,13
2012-10-27,73,70,66,64,63,61,87,77,68,29.68,29.63,29.58,10,10,9,25,20,33,0.00,8,,330
2012-10-28,77,67,59,61,56,50,90,71,50,29.77,29.69,29.64,10,10,10,17,12,29,0.00,3,,293
2012-10-29,66,56,48,46,38,29,74,52,31,29.83,29.76,29.69,10,10,10,20,14,29,0.00,1,,289
2012-10-30,66,54,44,33,28,22,60,39,21,29.91,29.81,29.75,10,10,10,23,12,31,0.00,0,,263
2012-10-31,72,58,46,49,38,32,66,47,27,30.00,29.94,29.88,10,10,10,18,10,29,0.00,2,,260